Time;durP1;ratioP1;P1;durP2;ratioP2;P2;SDS_P1;SDS_P2;PMS_P1;PMS_P2;Temp;Humidity;BMP_temperature;BMP_pressure;BME280_temperature;BME280_humidity;BME280_pressure;Samples;Min_cycle;Max_cycle;Signal;HPM_P1;HPM_P2
2021/06/27 00:00:41;;;;;;;14.00;12.80;;;16.80;99.90;;;;;;4972652;28;20457;-87
2021/06/27 00:03:09;;;;;;;13.37;12.23;;;16.80;99.90;;;;;;4956466;28;20190;-87
2021/06/27 00:05:36;;;;;;;15.00;13.70;;;16.70;99.90;;;;;;4951927;28;20446;-87
2021/06/27 00:08:03;;;;;;;13.87;12.57;;;16.70;99.90;;;;;;4959830;28;21001;-87
2021/06/27 00:10:34;;;;;;;14.07;12.43;;;16.70;99.90;;;;;;4976594;28;20525;-87
2021/06/27 00:13:04;;;;;;;14.67;13.17;;;16.70;99.90;;;;;;4973171;28;20513;-86
2021/06/27 00:15:42;;;;;;;13.73;12.57;;;16.80;99.90;;;;;;4975328;28;20442;-87
2021/06/27 00:18:10;;;;;;;13.63;12.33;;;16.70;99.90;;;;;;4969200;28;20957;-87
2021/06/27 00:20:38;;;;;;;14.60;13.17;;;16.70;99.90;;;;;;4977198;28;20588;-87
2021/06/27 00:23:13;;;;;;;15.53;13.90;;;16.60;99.90;;;;;;4974753;28;20464;-86
2021/06/27 00:25:40;;;;;;;15.47;13.20;;;16.50;99.90;;;;;;4957777;28;20568;-86
2021/06/27 00:28:33;;;;;;;14.07;12.67;;;16.50;99.90;;;;;;4972287;28;20763;-86
2021/06/27 00:31:03;;;;;;;14.77;13.37;;;16.50;99.90;;;;;;4950068;28;20525;-86
2021/06/27 00:33:29;;;;;;;14.60;13.20;;;16.50;99.90;;;;;;4957538;28;20486;-86
2021/06/27 00:35:58;;;;;;;13.30;12.00;;;16.50;99.90;;;;;;4959891;28;21786;-86
2021/06/27 00:38:24;;;;;;;15.23;13.83;;;16.50;99.90;;;;;;4962291;28;20505;-86
2021/06/27 00:40:56;;;;;;;14.63;13.20;;;16.60;99.90;;;;;;4962114;28;20272;-87
2021/06/27 00:43:21;;;;;;;13.70;12.40;;;16.60;99.90;;;;;;4978533;28;20511;-86
2021/06/27 00:45:50;;;;;;;15.87;14.27;;;16.70;99.90;;;;;;4972606;28;20498;-86
2021/06/27 00:48:16;;;;;;;13.47;12.13;;;16.60;99.90;;;;;;4961250;28;20182;-86
2021/06/27 00:50:45;;;;;;;13.53;12.33;;;16.60;99.90;;;;;;4962340;28;20527;-86
2021/06/27 00:53:19;;;;;;;13.63;12.43;;;16.60;99.90;;;;;;4961097;28;20210;-86
2021/06/27 00:55:56;;;;;;;15.03;13.63;;;16.60;99.90;;;;;;4960420;28;21028;-87
2021/06/27 00:58:36;;;;;;;13.90;12.70;;;16.50;99.90;;;;;;4961805;28;20457;-86
2021/06/27 01:01:04;;;;;;;12.47;11.37;;;16.50;99.90;;;;;;4957992;28;20438;-86
2021/06/27 01:03:30;;;;;;;13.20;12.00;;;16.40;99.90;;;;;;4978325;28;20436;-87
2021/06/27 01:05:56;;;;;;;12.97;11.60;;;16.40;99.90;;;;;;4958923;28;21130;-87
2021/06/27 01:08:22;;;;;;;13.07;11.97;;;16.20;99.90;;;;;;4974389;28;20210;-86
2021/06/27 01:10:49;;;;;;;13.70;12.30;;;16.10;99.90;;;;;;4963648;28;20689;-85
2021/06/27 01:13:21;;;;;;;11.73;10.63;;;16.20;99.90;;;;;;4961437;28;20473;-85
2021/06/27 01:15:48;;;;;;;11.87;10.77;;;16.20;99.90;;;;;;4959127;28;20519;-86
2021/06/27 01:18:16;;;;;;;11.67;10.63;;;16.20;99.90;;;;;;4973198;28;20430;-86
2021/06/27 01:20:42;;;;;;;11.17;10.17;;;16.20;99.90;;;;;;4959663;28;20815;-86
2021/06/27 01:23:14;;;;;;;12.23;11.03;;;16.20;99.90;;;;;;4960794;28;20961;-85
2021/06/27 01:25:46;;;;;;;12.27;11.10;;;16.30;99.90;;;;;;4961564;28;20218;-86
2021/06/27 01:28:21;;;;;;;12.07;11.07;;;16.20;99.90;;;;;;4959328;28;20812;-86
2021/06/27 01:30:47;;;;;;;12.97;11.77;;;16.20;99.90;;;;;;4963001;28;20444;-86
2021/06/27 01:33:19;;;;;;;11.47;10.27;;;16.20;99.90;;;;;;4962222;28;20564;-87
2021/06/27 01:35:47;;;;;;;13.27;10.40;;;16.20;99.90;;;;;;4960436;28;20430;-87
2021/06/27 01:38:14;;;;;;;12.10;10.90;;;16.20;99.90;;;;;;4963770;28;20448;-87
2021/06/27 01:40:40;;;;;;;11.50;10.30;;;16.10;99.90;;;;;;4977601;28;21208;-87
2021/06/27 01:43:21;;;;;;;11.37;10.37;;;16.10;99.90;;;;;;4960208;28;20472;-87
2021/06/27 01:45:49;;;;;;;11.23;10.23;;;16.00;99.90;;;;;;4954781;28;20495;-86
2021/06/27 01:48:16;;;;;;;11.73;10.60;;;16.10;99.90;;;;;;4961556;28;20488;-86
2021/06/27 01:50:44;;;;;;;11.47;10.37;;;16.10;99.90;;;;;;4963030;28;20882;-87
2021/06/27 01:53:12;;;;;;;12.03;10.00;;;16.10;99.90;;;;;;4977583;28;20511;-87
2021/06/27 01:55:39;;;;;;;11.30;10.20;;;16.00;99.90;;;;;;4955402;28;20952;-87
2021/06/27 01:58:04;;;;;;;11.33;10.23;;;15.90;99.90;;;;;;4961008;28;20457;-87
2021/06/27 02:00:31;;;;;;;12.27;11.03;;;15.90;99.90;;;;;;4960276;28;20973;-86
2021/06/27 02:02:57;;;;;;;11.33;10.10;;;15.80;99.90;;;;;;4973739;28;20554;-87
2021/06/27 02:05:27;;;;;;;12.60;11.43;;;15.70;99.90;;;;;;4958525;28;20431;-86
2021/06/27 02:08:14;;;;;;;12.20;11.03;;;15.60;99.90;;;;;;4973506;28;20265;-86
2021/06/27 02:10:40;;;;;;;12.57;11.40;;;15.50;99.90;;;;;;4961742;28;20434;-85
2021/06/27 02:13:15;;;;;;;11.67;10.57;;;15.30;99.90;;;;;;4961386;28;20476;-86
2021/06/27 02:15:41;;;;;;;13.40;12.20;;;15.30;99.90;;;;;;4951630;28;20471;-86
2021/06/27 02:18:10;;;;;;;11.60;10.60;;;15.30;99.90;;;;;;4962922;28;20564;-86
2021/06/27 02:20:36;;;;;;;12.63;11.60;;;15.40;99.90;;;;;;4976141;28;20767;-86
2021/06/27 02:23:02;;;;;;;14.33;11.20;;;15.50;99.90;;;;;;4976331;28;20465;-86
2021/06/27 02:25:28;;;;;;;12.37;11.27;;;15.50;99.90;;;;;;4971545;28;20458;-86
2021/06/27 02:27:54;;;;;;;12.43;11.20;;;15.60;99.90;;;;;;4960290;28;20183;-86
2021/06/27 02:30:20;;;;;;;12.40;11.30;;;15.60;99.90;;;;;;4980117;28;20190;-86
2021/06/27 02:32:46;;;;;;;11.23;10.33;;;15.50;99.90;;;;;;4961894;28;20216;-87
2021/06/27 02:35:13;;;;;;;11.90;10.80;;;15.40;99.90;;;;;;4963322;28;20434;-86
2021/06/27 02:37:39;;;;;;;12.60;10.93;;;15.30;99.90;;;;;;4972949;28;20204;-86
2021/06/27 02:40:17;;;;;;;12.03;10.83;;;15.30;99.90;;;;;;4955405;28;20451;-87
2021/06/27 02:42:45;;;;;;;12.03;11.00;;;15.20;99.90;;;;;;4960503;28;20494;-87
2021/06/27 02:45:11;;;;;;;12.37;11.17;;;15.10;99.90;;;;;;4959521;28;20436;-86
2021/06/27 02:47:37;;;;;;;12.67;11.37;;;15.10;99.90;;;;;;4961731;28;20295;-86
2021/06/27 02:50:09;;;;;;;12.30;10.93;;;15.10;99.90;;;;;;4979005;28;20989;-86
2021/06/27 02:52:35;;;;;;;12.87;11.37;;;15.00;99.90;;;;;;4962344;28;20576;-86
2021/06/27 02:55:01;;;;;;;12.10;10.97;;;15.00;99.90;;;;;;4959550;28;20536;-86
2021/06/27 02:57:26;;;;;;;12.37;11.37;;;14.90;99.90;;;;;;4960794;28;20183;-86
2021/06/27 02:59:52;;;;;;;12.37;11.27;;;15.00;99.90;;;;;;4962126;28;20447;-86
2021/06/27 03:02:18;;;;;;;12.47;11.37;;;15.00;99.90;;;;;;4977621;28;20260;-86
2021/06/27 03:04:43;;;;;;;12.30;10.97;;;15.10;99.90;;;;;;4970929;28;20773;-86
2021/06/27 03:07:09;;;;;;;12.33;11.03;;;15.00;99.90;;;;;;4972630;28;20229;-86
2021/06/27 03:09:35;;;;;;;11.57;10.47;;;15.00;99.90;;;;;;4970816;28;20183;-86
2021/06/27 03:12:00;;;;;;;14.33;10.67;;;14.90;99.90;;;;;;4976475;28;20193;-86
2021/06/27 03:14:26;;;;;;;11.90;10.70;;;15.00;99.90;;;;;;4959070;28;20221;-86
2021/06/27 03:16:52;;;;;;;15.80;10.90;;;15.00;99.90;;;;;;4975444;28;20194;-87
2021/06/27 03:19:17;;;;;;;11.50;10.30;;;15.00;99.90;;;;;;4959498;28;20706;-87
2021/06/27 03:21:43;;;;;;;11.90;10.80;;;15.20;99.90;;;;;;4960591;28;20187;-88
2021/06/27 03:24:09;;;;;;;11.17;10.17;;;15.30;99.90;;;;;;4973333;28;20190;-87
2021/06/27 03:26:35;;;;;;;10.03;9.00;;;15.30;99.90;;;;;;4957079;28;20449;-87
2021/06/27 03:29:08;;;;;;;10.90;9.93;;;15.30;99.90;;;;;;4956552;28;20454;-87
2021/06/27 03:31:34;;;;;;;11.23;10.20;;;15.30;99.90;;;;;;4956375;28;20434;-87
2021/06/27 03:34:00;;;;;;;11.30;10.30;;;15.30;99.90;;;;;;4974695;28;20222;-87
2021/06/27 03:36:26;;;;;;;15.87;11.27;;;15.20;99.90;;;;;;4976765;28;20205;-86
2021/06/27 03:41:24;;;;;;;11.87;10.77;;;15.30;99.90;;;;;;4959352;28;20671;-87
2021/06/27 03:43:49;;;;;;;14.20;10.80;;;15.40;99.90;;;;;;4960598;28;20872;-87
2021/06/27 03:46:16;;;;;;;11.67;10.30;;;15.40;99.90;;;;;;4955054;28;20438;-87
2021/06/27 03:48:43;;;;;;;12.27;10.50;;;15.40;99.90;;;;;;4958578;28;20478;-87
2021/06/27 03:51:09;;;;;;;10.90;9.83;;;15.40;99.90;;;;;;4963525;28;20540;-87
2021/06/27 03:53:37;;;;;;;9.77;8.90;;;15.50;99.90;;;;;;4960630;28;20844;-86
2021/06/27 03:56:03;;;;;;;10.90;9.80;;;15.60;99.90;;;;;;4980417;28;20430;-87
2021/06/27 03:58:28;;;;;;;9.97;8.97;;;15.70;99.90;;;;;;4973777;28;20190;-87
2021/06/27 04:00:54;;;;;;;9.73;8.90;;;15.80;99.90;;;;;;4957725;28;20186;-87
2021/06/27 04:03:20;;;;;;;10.50;9.60;;;15.90;99.90;;;;;;4974474;28;20324;-87
2021/06/27 04:05:46;;;;;;;10.10;9.20;;;16.00;99.90;;;;;;4959645;28;20186;-86
2021/06/27 04:08:12;;;;;;;10.10;9.20;;;16.10;99.90;;;;;;4959889;28;20492;-87
2021/06/27 04:10:40;;;;;;;10.80;9.70;;;16.20;99.90;;;;;;4960506;28;20648;-86
2021/06/27 04:13:09;;;;;;;11.67;10.67;;;16.30;99.90;;;;;;4957023;28;20210;-86
2021/06/27 04:15:34;;;;;;;15.00;11.30;;;16.40;99.90;;;;;;4976656;28;20426;-86
2021/06/27 04:18:00;;;;;;;14.87;11.80;;;16.50;99.90;;;;;;4980609;28;20224;-86
2021/06/27 04:20:27;;;;;;;11.63;10.63;;;16.50;99.90;;;;;;4960731;28;20178;-87
2021/06/27 04:22:53;;;;;;;12.27;11.00;;;16.60;99.90;;;;;;4980919;28;20437;-86
2021/06/27 04:25:19;;;;;;;12.13;10.93;;;16.60;99.90;;;;;;4965241;28;21074;-86
2021/06/27 04:27:45;;;;;;;12.27;10.97;;;16.60;99.90;;;;;;4979509;28;20297;-87
2021/06/27 04:30:11;;;;;;;11.60;10.60;;;16.60;99.90;;;;;;4966704;28;20202;-86
2021/06/27 04:32:37;;;;;;;12.60;11.50;;;16.60;99.90;;;;;;4974974;28;20233;-86
2021/06/27 04:35:06;;;;;;;10.50;9.60;;;16.60;99.90;;;;;;4963176;28;20948;-86
2021/06/27 04:37:53;;;;;;;11.50;10.47;;;16.60;99.90;;;;;;4963311;28;20433;-87
2021/06/27 04:40:19;;;;;;;11.07;10.10;;;16.70;99.90;;;;;;4959112;28;20512;-87
2021/06/27 04:42:44;;;;;;;12.50;11.03;;;16.70;99.90;;;;;;4979298;28;20441;-87
2021/06/27 04:45:11;;;;;;;11.63;10.63;;;16.80;99.90;;;;;;4980053;28;20429;-87
2021/06/27 04:47:38;;;;;;;11.43;10.43;;;16.80;99.90;;;;;;4974161;28;20658;-86
2021/06/27 04:50:05;;;;;;;11.00;10.00;;;16.80;99.90;;;;;;4961297;28;20441;-87
2021/06/27 04:52:32;;;;;;;10.63;9.73;;;16.80;99.90;;;;;;4972510;28;20477;-87
2021/06/27 04:54:58;;;;;;;11.20;10.20;;;16.90;99.90;;;;;;4961366;28;20445;-87
2021/06/27 04:57:24;;;;;;;9.70;8.80;;;16.90;99.90;;;;;;4959725;28;20508;-87
2021/06/27 04:59:52;;;;;;;10.23;9.30;;;17.00;99.90;;;;;;4959904;28;20198;-87
2021/06/27 05:02:18;;;;;;;10.93;9.93;;;17.10;99.90;;;;;;4961471;28;20568;-86
2021/06/27 05:04:43;;;;;;;12.20;11.00;;;17.20;99.90;;;;;;4976483;28;20445;-86
2021/06/27 05:07:09;;;;;;;10.40;9.60;;;17.30;99.90;;;;;;4973407;28;20183;-86
2021/06/27 05:09:35;;;;;;;11.00;9.93;;;17.40;99.90;;;;;;4960259;28;20191;-86
2021/06/27 05:12:00;;;;;;;11.03;10.03;;;17.40;99.90;;;;;;4961931;28;20214;-85
2021/06/27 05:14:26;;;;;;;10.60;9.50;;;17.50;99.90;;;;;;4960940;28;20266;-86
2021/06/27 05:16:52;;;;;;;10.87;9.70;;;17.50;99.90;;;;;;4977434;28;20501;-86
2021/06/27 05:19:20;;;;;;;10.40;9.50;;;17.60;99.90;;;;;;4961898;28;20292;-86
2021/06/27 05:21:52;;;;;;;10.97;10.00;;;17.70;99.90;;;;;;4961674;28;20489;-86
2021/06/27 05:24:40;;;;;;;10.53;9.43;;;17.70;99.90;;;;;;4973887;28;20538;-86
2021/06/27 05:27:08;;;;;;;11.00;10.00;;;17.70;99.90;;;;;;4960839;28;20449;-86
2021/06/27 05:29:34;;;;;;;10.63;9.63;;;17.90;99.90;;;;;;4959135;28;20432;-86
2021/06/27 05:32:03;;;;;;;11.10;10.10;;;17.80;99.90;;;;;;4976957;28;20473;-87
2021/06/27 05:34:30;;;;;;;9.83;8.93;;;17.80;99.90;;;;;;4960884;28;20485;-87
2021/06/27 05:37:15;;;;;;;10.33;9.40;;;17.90;99.90;;;;;;4966118;28;20438;-87
2021/06/27 05:39:40;;;;;;;8.80;7.90;;;17.90;99.90;;;;;;4977887;28;20516;-86
2021/06/27 05:42:06;;;;;;;8.63;7.93;;;18.00;99.90;;;;;;4960929;28;20469;-86
2021/06/27 05:44:32;;;;;;;8.63;7.83;;;18.00;99.90;;;;;;4954593;28;20190;-86
2021/06/27 05:46:57;;;;;;;8.57;7.77;;;18.10;99.90;;;;;;4962033;28;20190;-86
2021/06/27 05:49:23;;;;;;;8.73;7.80;;;18.00;99.90;;;;;;4962041;28;20190;-86
2021/06/27 05:51:48;;;;;;;8.40;7.70;;;18.10;99.90;;;;;;4961822;28;20474;-86
2021/06/27 05:54:14;;;;;;;8.93;8.13;;;18.10;99.90;;;;;;4960812;28;20735;-86
2021/06/27 05:56:40;;;;;;;8.43;7.63;;;18.20;99.90;;;;;;4960953;28;20190;-86
2021/06/27 05:59:06;;;;;;;7.60;6.90;;;18.20;99.90;;;;;;4960275;28;20272;-86
2021/06/27 06:01:32;;;;;;;6.90;5.93;;;18.30;99.90;;;;;;4960804;28;20594;-87
2021/06/27 06:03:57;;;;;;;8.40;7.70;;;18.40;99.90;;;;;;4971642;28;20191;-86
2021/06/27 06:06:23;;;;;;;7.03;6.27;;;18.40;99.90;;;;;;4975045;28;20509;-86
2021/06/27 06:08:56;;;;;;;8.47;7.50;;;18.40;99.90;;;;;;4961255;28;20659;-85
2021/06/27 06:11:24;;;;;;;7.73;7.00;;;18.50;99.90;;;;;;4969224;28;20194;-85
2021/06/27 06:14:02;;;;;;;8.03;7.43;;;18.50;99.90;;;;;;4957797;28;20485;-85
2021/06/27 06:16:31;;;;;;;8.70;7.90;;;18.50;99.90;;;;;;4934084;28;20515;-86
2021/06/27 06:18:59;;;;;;;8.63;7.90;;;18.70;99.90;;;;;;4954453;28;20453;-85
2021/06/27 06:21:24;;;;;;;7.87;7.27;;;18.80;99.90;;;;;;4956819;28;20859;-86
2021/06/27 06:24:04;;;;;;;8.70;7.60;;;18.90;99.90;;;;;;4970164;28;20820;-85
2021/06/27 06:27:07;;;;;;;8.80;8.10;;;18.80;99.90;;;;;;4953353;28;20252;-86
2021/06/27 06:29:33;;;;;;;9.57;8.67;;;18.80;99.90;;;;;;4972084;28;20429;-86
2021/06/27 06:31:59;;;;;;;8.27;7.47;;;18.90;99.90;;;;;;4953509;28;20452;-86
2021/06/27 06:34:25;;;;;;;7.60;7.00;;;19.10;99.90;;;;;;4954323;28;20913;-85
2021/06/27 06:36:51;;;;;;;8.50;7.87;;;19.30;99.90;;;;;;4957353;28;20195;-85
2021/06/27 06:39:16;;;;;;;7.83;7.23;;;19.40;99.90;;;;;;4951159;28;20743;-85
2021/06/27 06:41:42;;;;;;;8.23;7.43;;;19.60;99.90;;;;;;4971019;28;20203;-86
2021/06/27 06:44:08;;;;;;;7.50;7.00;;;19.80;99.90;;;;;;4971222;28;20194;-86
2021/06/27 06:46:36;;;;;;;7.57;7.07;;;19.90;99.90;;;;;;4953081;28;20287;-86
2021/06/27 06:49:03;;;;;;;8.10;7.40;;;20.00;99.90;;;;;;4942213;28;20446;-86
2021/06/27 06:51:29;;;;;;;7.90;7.30;;;20.00;99.90;;;;;;4955467;28;20461;-86
2021/06/27 06:53:55;;;;;;;7.70;7.20;;;20.10;99.90;;;;;;4956073;28;20482;-87
2021/06/27 06:56:21;;;;;;;7.50;6.90;;;20.00;99.90;;;;;;4971831;28;20240;-86
2021/06/27 06:58:47;;;;;;;7.90;7.27;;;19.90;99.90;;;;;;4957498;28;20543;-86
2021/06/27 07:01:16;;;;;;;6.90;6.30;;;19.80;99.90;;;;;;4951568;28;21050;-85
2021/06/27 07:03:45;;;;;;;8.27;7.50;;;19.80;99.90;;;;;;4955032;28;20959;-89
2021/06/27 07:06:19;;;;;;;8.30;7.57;;;19.80;99.90;;;;;;4954881;28;20450;-89
2021/06/27 07:08:44;;;;;;;9.00;8.30;;;19.70;99.90;;;;;;4956414;28;20540;-89
2021/06/27 07:11:11;;;;;;;9.07;8.17;;;19.70;99.90;;;;;;4965280;28;20667;-90
2021/06/27 07:13:37;;;;;;;8.87;8.07;;;19.80;99.90;;;;;;4946606;28;20218;-89
2021/06/27 07:16:02;;;;;;;9.00;8.30;;;20.00;99.90;;;;;;4951899;28;20439;-88
2021/06/27 07:18:29;;;;;;;8.40;7.80;;;20.20;99.90;;;;;;4954421;28;20960;-89
2021/06/27 07:20:54;;;;;;;7.33;6.73;;;20.50;99.90;;;;;;4939989;28;20456;-88
2021/06/27 07:23:21;;;;;;;8.33;7.70;;;20.60;99.90;;;;;;4955376;28;20934;-89
2021/06/27 07:25:47;;;;;;;8.00;7.30;;;20.80;99.90;;;;;;4954974;28;20453;-89
2021/06/27 07:28:12;;;;;;;7.00;6.50;;;21.00;99.90;;;;;;4953748;28;20220;-88
2021/06/27 07:30:38;;;;;;;7.23;6.63;;;21.10;99.90;;;;;;4936076;28;20301;-89
2021/06/27 07:33:04;;;;;;;6.70;6.20;;;21.30;99.90;;;;;;4949622;28;20305;-89
2021/06/27 07:35:30;;;;;;;7.33;6.63;;;21.50;99.90;;;;;;4954039;28;20210;-89
2021/06/27 07:37:59;;;;;;;7.80;7.20;;;21.70;99.90;;;;;;4955334;28;20640;-89
2021/06/27 07:40:40;;;;;;;7.73;7.10;;;21.70;99.90;;;;;;4953937;28;21077;-90
2021/06/27 07:43:06;;;;;;;8.70;6.20;;;21.70;99.90;;;;;;4954416;28;20460;-89
2021/06/27 07:45:32;;;;;;;6.83;6.13;;;21.70;99.90;;;;;;4972261;28;20441;-89
2021/06/27 07:47:59;;;;;;;7.53;6.83;;;21.60;99.90;;;;;;4952706;28;20661;-90
2021/06/27 07:50:26;;;;;;;7.80;7.10;;;21.60;99.90;;;;;;4948823;28;20461;-88
2021/06/27 07:52:53;;;;;;;7.40;6.80;;;21.70;99.90;;;;;;4952187;28;20500;-89
2021/06/27 07:55:23;;;;;;;7.23;6.67;;;21.90;99.90;;;;;;4950406;28;20507;-90
2021/06/27 08:00:22;;;;;;;6.90;6.40;;;22.30;99.90;;;;;;4952823;28;20474;-90
2021/06/27 08:02:49;;;;;;;8.10;6.97;;;22.40;99.90;;;;;;4954004;28;20450;-89
2021/06/27 08:05:15;;;;;;;7.03;6.43;;;22.40;99.90;;;;;;4970971;28;20466;-90
2021/06/27 08:07:41;;;;;;;6.23;5.73;;;22.60;99.90;;;;;;4970787;28;21003;-89
2021/06/27 08:10:21;;;;;;;7.63;6.80;;;22.80;99.90;;;;;;4970886;28;20680;-89
2021/06/27 08:12:56;;;;;;;6.87;6.37;;;22.90;99.90;;;;;;4956128;28;20226;-91
2021/06/27 08:16:00;;;;;;;6.10;5.70;;;23.00;99.90;;;;;;4953131;28;20465;-90
2021/06/27 08:18:26;;;;;;;6.23;5.57;;;22.90;99.90;;;;;;4956674;28;20445;-89
2021/06/27 08:20:54;;;;;;;6.43;6.03;;;23.00;99.90;;;;;;4952982;28;20437;-89
2021/06/27 08:23:25;;;;;;;6.57;6.17;;;23.20;99.90;;;;;;4955352;28;20261;-89
2021/06/27 08:25:52;;;;;;;7.50;6.70;;;23.30;99.90;;;;;;4970554;28;20460;-89
2021/06/27 08:28:19;;;;;;;6.90;6.40;;;23.50;99.90;;;;;;4966017;28;20952;-89
2021/06/27 08:30:45;;;;;;;6.97;6.27;;;23.60;99.90;;;;;;4948310;28;20461;-89
2021/06/27 08:33:19;;;;;;;6.60;6.10;;;23.60;99.90;;;;;;4953096;28;20492;-86
2021/06/27 08:38:29;;;;;;;6.90;6.23;;;23.80;99.90;;;;;;4955291;28;20457;-89
2021/06/27 08:40:59;;;;;;;6.60;6.17;;;24.00;99.90;;;;;;4958520;28;20520;-88
2021/06/27 08:43:31;;;;;;;6.53;6.00;;;24.20;99.90;;;;;;4942058;28;21685;-88
2021/06/27 08:46:19;;;;;;;6.20;5.70;;;24.10;99.90;;;;;;4947059;28;20789;-88
2021/06/27 08:48:45;;;;;;;6.10;5.70;;;24.20;99.90;;;;;;4949655;28;20790;-86
2021/06/27 08:51:12;;;;;;;6.90;6.20;;;24.30;99.90;;;;;;4938949;28;20462;-87
2021/06/27 08:53:41;;;;;;;6.03;5.63;;;24.50;99.90;;;;;;4950292;28;20218;-86
2021/06/27 08:56:11;;;;;;;6.53;6.03;;;24.50;99.90;;;;;;4948285;28;20764;-87
2021/06/27 08:58:42;;;;;;;5.90;5.40;;;24.60;99.90;;;;;;4951218;28;20660;-87
2021/06/27 09:01:21;;;;;;;6.00;5.60;;;24.50;99.90;;;;;;4954871;28;20769;-87
2021/06/27 09:03:48;;;;;;;6.13;5.60;;;24.60;99.90;;;;;;4971255;28;20826;-87
2021/06/27 09:06:24;;;;;;;6.57;6.17;;;24.80;99.90;;;;;;4972563;28;20485;-89
2021/06/27 09:09:17;;;;;;;5.90;5.50;;;25.10;99.90;;;;;;4960994;28;20428;-88
2021/06/27 09:12:05;;;;;;;5.60;5.20;;;25.30;99.90;;;;;;4956720;28;20486;-88
2021/06/27 09:14:45;;;;;;;5.20;4.80;;;25.50;99.90;;;;;;4958335;28;21166;-88
2021/06/27 09:17:18;;;;;;;5.40;5.10;;;25.50;99.90;;;;;;4972850;28;20452;-89
2021/06/27 09:20:09;;;;;;;5.80;5.30;;;25.50;99.90;;;;;;4957999;28;20795;-89
2021/06/27 09:22:36;;;;;;;5.13;4.70;;;25.60;99.90;;;;;;4959150;28;20497;-88
2021/06/27 09:25:22;;;;;;;4.83;4.53;;;25.60;99.90;;;;;;4972092;28;20480;-85
2021/06/27 09:28:08;;;;;;;5.03;4.73;;;25.70;99.80;;;;;;4955006;28;20453;-87
2021/06/27 09:30:56;;;;;;;5.90;5.40;;;25.70;99.90;;;;;;4954450;28;20867;-87
2021/06/27 09:33:24;;;;;;;4.23;3.93;;;25.80;99.10;;;;;;4972638;28;20488;-86
2021/06/27 09:36:20;;;;;;;4.30;4.00;;;26.00;99.90;;;;;;4956381;28;20504;-87
2021/06/27 09:38:50;;;;;;;3.60;3.30;;;26.00;97.70;;;;;;4973149;28;20456;-88
2021/06/27 09:41:25;;;;;;;3.20;3.00;;;26.10;95.60;;;;;;4952783;28;20469;-88
2021/06/27 09:44:04;;;;;;;3.70;3.50;;;26.10;95.20;;;;;;4952500;28;20460;-88
2021/06/27 09:46:31;;;;;;;3.53;3.23;;;26.20;96.60;;;;;;4953105;28;20458;-88
2021/06/27 09:49:00;;;;;;;3.00;2.80;;;26.20;92.70;;;;;;4955424;28;20449;-88
2021/06/27 09:51:27;;;;;;;3.00;2.80;;;26.30;90.80;;;;;;4971391;28;20433;-87
2021/06/27 09:53:54;;;;;;;3.20;3.00;;;26.40;89.40;;;;;;4953317;28;20484;-88
2021/06/27 09:56:38;;;;;;;3.37;3.17;;;26.50;91.80;;;;;;4971404;28;20452;-92
2021/06/27 09:59:22;;;;;;;3.03;2.83;;;26.60;93.30;;;;;;4943212;28;20449;-89
2021/06/27 10:01:58;;;;;;;3.93;3.50;;;26.80;93.50;;;;;;4956587;28;20452;-94
2021/06/27 10:04:44;;;;;;;3.30;3.10;;;26.90;94.60;;;;;;4970791;28;20875;-92
2021/06/27 10:07:09;;;;;;;3.50;3.30;;;26.90;93.40;;;;;;4957963;28;20531;-91
2021/06/27 10:09:41;;;;;;;3.57;3.30;;;27.20;91.10;;;;;;4976417;28;20453;-91
2021/06/27 10:12:11;;;;;;;3.50;3.27;;;27.30;93.80;;;;;;4956873;28;20526;-92
2021/06/27 10:14:50;;;;;;;3.53;3.30;;;27.60;92.00;;;;;;4972695;28;20497;-92
2021/06/27 10:17:19;;;;;;;3.47;3.20;;;27.70;93.20;;;;;;4971088;28;20449;-92
2021/06/27 10:19:45;;;;;;;3.07;2.90;;;27.80;90.60;;;;;;4957996;28;20453;-92
2021/06/27 10:22:21;;;;;;;3.40;3.20;;;27.80;91.10;;;;;;4959411;28;20446;-90
2021/06/27 10:28:10;;;;;;;3.40;3.20;;;27.40;91.50;;;;;;4951577;28;20950;-91
2021/06/27 10:30:36;;;;;;;3.03;2.87;;;27.10;90.50;;;;;;4937178;28;20456;-90
2021/06/27 10:33:02;;;;;;;3.97;3.67;;;27.20;91.50;;;;;;4954588;28;21007;-91
2021/06/27 10:35:28;;;;;;;2.73;2.63;;;27.50;93.00;;;;;;4953089;28;20555;-90
2021/06/27 10:37:59;;;;;;;2.77;2.67;;;27.80;91.80;;;;;;4947846;28;20927;-90
2021/06/27 10:40:25;;;;;;;2.97;2.77;;;28.20;86.90;;;;;;4972232;28;20194;-92
2021/06/27 10:42:50;;;;;;;3.20;3.00;;;28.60;83.00;;;;;;4952616;28;20847;-89
2021/06/27 10:45:30;;;;;;;3.33;3.13;;;28.60;86.90;;;;;;4953034;28;20194;-92
2021/06/27 10:48:32;;;;;;;3.10;3.00;;;28.60;89.20;;;;;;4954939;28;20206;-90
2021/06/27 10:50:59;;;;;;;3.43;3.13;;;28.30;79.80;;;;;;4937129;28;20446;-92
2021/06/27 10:53:53;;;;;;;2.97;2.80;;;28.50;85.80;;;;;;4950897;28;20504;-92
2021/06/27 10:56:51;;;;;;;3.23;3.03;;;28.20;87.70;;;;;;4967157;28;20484;-91
2021/06/27 10:59:39;;;;;;;3.00;2.80;;;28.00;86.20;;;;;;4953252;28;20446;-92
2021/06/27 11:02:20;;;;;;;3.50;3.20;;;28.00;80.80;;;;;;4963967;28;20525;-90
2021/06/27 11:05:26;;;;;;;3.30;3.10;;;28.10;88.30;;;;;;4955956;28;20453;-92
2021/06/27 11:07:53;;;;;;;2.90;2.77;;;28.50;90.20;;;;;;4953227;28;20448;-90
2021/06/27 11:10:22;;;;;;;3.40;2.73;;;28.50;86.10;;;;;;4956673;28;20433;-90
2021/06/27 11:13:04;;;;;;;2.83;2.63;;;28.50;89.60;;;;;;4952957;28;20843;-89
2021/06/27 11:16:01;;;;;;;2.93;2.67;;;28.60;84.50;;;;;;4953480;28;20449;-89
2021/06/27 11:18:34;;;;;;;3.23;3.03;;;29.00;83.20;;;;;;4951297;28;20468;-89
2021/06/27 11:21:21;;;;;;;3.13;2.97;;;28.80;81.20;;;;;;4956057;28;20441;-89
2021/06/27 11:24:02;;;;;;;2.70;2.50;;;28.90;87.70;;;;;;4954748;28;20544;-92
2021/06/27 11:26:50;;;;;;;2.90;2.80;;;28.70;83.40;;;;;;4954570;28;20455;-90
2021/06/27 11:29:24;;;;;;;2.50;2.40;;;28.60;83.60;;;;;;4969479;28;20453;-91
2021/06/27 11:32:08;;;;;;;3.07;2.87;;;28.70;79.90;;;;;;4971839;28;20456;-91
2021/06/27 11:34:37;;;;;;;3.00;2.90;;;29.10;84.10;;;;;;4950631;28;20481;-92
2021/06/27 11:37:15;;;;;;;3.10;2.90;;;28.70;81.60;;;;;;4969776;28;20454;-91
2021/06/27 11:40:02;;;;;;;3.40;3.20;;;28.70;84.70;;;;;;4954943;28;21052;-92
2021/06/27 11:42:29;;;;;;;3.00;2.80;;;28.80;81.60;;;;;;4952060;28;21181;-92
2021/06/27 11:45:07;;;;;;;2.50;2.40;;;28.70;82.00;;;;;;4964697;28;20904;-91
2021/06/27 11:47:51;;;;;;;2.70;2.50;;;29.00;84.90;;;;;;4970198;28;20497;-90
2021/06/27 11:50:32;;;;;;;2.80;2.70;;;29.30;80.00;;;;;;4950375;28;20531;-92
2021/06/27 11:53:07;;;;;;;2.80;2.60;;;29.60;79.40;;;;;;4967779;28;20472;-91
2021/06/27 11:55:35;;;;;;;2.80;2.70;;;29.80;78.30;;;;;;4971660;28;20524;-91
2021/06/27 11:58:17;;;;;;;3.20;3.00;;;29.60;80.50;;;;;;4950306;28;20454;-92
2021/06/27 12:00:46;;;;;;;3.20;3.00;;;29.90;78.90;;;;;;4969168;28;20453;-91
2021/06/27 12:03:22;;;;;;;3.33;3.13;;;29.60;81.30;;;;;;4951835;28;20548;-93
2021/06/27 12:06:01;;;;;;;3.17;2.87;;;29.60;81.10;;;;;;4967424;28;20738;-92
2021/06/27 12:08:35;;;;;;;3.60;3.40;;;29.60;74.90;;;;;;4952968;28;20551;-91
2021/06/27 12:11:09;;;;;;;2.90;2.80;;;29.70;84.70;;;;;;4968353;28;20541;-90
2021/06/27 12:13:35;;;;;;;3.10;2.90;;;30.00;79.70;;;;;;4950709;28;20214;-93
2021/06/27 12:16:01;;;;;;;3.00;2.80;;;30.30;77.70;;;;;;4974927;28;20442;-90
2021/06/27 12:18:32;;;;;;;4.87;3.10;;;30.30;68.30;;;;;;4954062;28;20928;-91
2021/06/27 12:21:07;;;;;;;3.27;3.07;;;30.20;67.10;;;;;;4969697;28;20440;-92
2021/06/27 12:23:35;;;;;;;3.10;2.90;;;30.20;74.40;;;;;;4968957;28;20499;-91
2021/06/27 12:26:02;;;;;;;2.83;2.73;;;29.80;76.70;;;;;;4956254;28;20609;-91
2021/06/27 12:28:38;;;;;;;3.10;2.90;;;29.90;77.70;;;;;;4952939;28;20452;-90
2021/06/27 12:31:22;;;;;;;3.27;3.07;;;30.20;79.30;;;;;;4961600;28;20462;-92
2021/06/27 12:34:18;;;;;;;2.77;2.60;;;29.80;79.90;;;;;;4951802;28;20688;-91
2021/06/27 12:36:49;;;;;;;3.07;2.87;;;29.80;78.60;;;;;;4959689;28;20442;-91
2021/06/27 12:39:24;;;;;;;3.00;2.80;;;30.10;78.00;;;;;;4970376;28;20880;-91
2021/06/27 12:42:07;;;;;;;2.53;2.43;;;30.10;78.90;;;;;;4954578;28;20467;-90
2021/06/27 12:44:40;;;;;;;2.83;2.63;;;30.10;78.10;;;;;;4956952;28;20453;-91
2021/06/27 12:47:06;;;;;;;2.70;2.60;;;30.30;80.40;;;;;;4979161;28;20547;-91
2021/06/27 12:49:48;;;;;;;2.97;2.70;;;31.00;66.80;;;;;;4950642;28;20453;-91
2021/06/27 12:52:27;;;;;;;2.93;2.73;;;31.20;72.30;;;;;;4971683;28;20187;-90
2021/06/27 12:55:11;;;;;;;2.83;2.70;;;31.20;68.50;;;;;;4959658;28;20469;-90
2021/06/27 12:58:04;;;;;;;2.73;2.60;;;31.30;76.40;;;;;;4958295;28;20928;-92
2021/06/27 13:00:34;;;;;;;2.87;2.70;;;30.80;71.30;;;;;;4946468;28;20472;-91
2021/06/27 13:03:20;;;;;;;3.10;2.90;;;30.70;71.40;;;;;;4955463;28;20522;-92
2021/06/27 13:05:59;;;;;;;3.63;3.40;;;30.70;74.30;;;;;;4958624;28;20556;-91
2021/06/27 13:08:26;;;;;;;3.37;3.00;;;31.00;72.00;;;;;;4972027;28;20441;-91